createdAt,value
2023-02-19T00:12:27.466Z,71.10
2023-02-19T00:33:33.013Z,67.35
2023-02-19T00:39:27.411Z,66.30
2023-02-19T00:46:49.603Z,66.22
2023-02-19T00:49:53.703Z,66.10
2023-02-19T01:00:24.755Z,62.78
2023-02-19T01:06:37.663Z,68.15
2023-02-19T01:09:20.147Z,65.53
2023-02-19T01:11:59.688Z,67.43
2023-02-19T01:14:30.219Z,69.75
2023-02-19T01:16:58.300Z,67.80
2023-02-19T01:19:29.127Z,63.65
2023-02-19T01:22:00.671Z,64.22
2023-02-19T01:28:46.308Z,63.70
2023-02-19T01:34:48.957Z,64.68
2023-02-19T01:37:17.948Z,65.78
2023-02-19T01:39:47.018Z,64.47
2023-02-19T01:42:24.520Z,65.30
2023-02-19T01:45:21.952Z,64.30
2023-02-19T01:48:08.936Z,64.35
2023-02-19T01:50:46.136Z,64.65
2023-02-19T01:53:19.436Z,63.97
2023-02-19T01:55:53.573Z,66.22
2023-02-19T01:58:26.290Z,65.00
2023-02-19T02:01:42.116Z,64.38
2023-02-19T02:10:47.790Z,62.08
2023-02-19T02:13:19.120Z,63.38
2023-02-19T02:16:13.063Z,62.50
2023-02-19T02:19:09.420Z,62.13
2023-02-19T02:22:18.622Z,61.72
2023-02-19T02:25:12.605Z,63.83
2023-02-19T02:27:59.070Z,64.13
2023-02-19T02:30:44.935Z,63.05
2023-02-19T02:48:56.094Z,64.18
2023-02-19T03:02:24.520Z,64.22
2023-02-19T03:05:41.131Z,63.22
2023-02-19T03:12:02.197Z,59.92
2023-02-19T03:18:46.362Z,61.08
2023-02-19T03:29:04.181Z,63.08
2023-02-19T03:36:16.006Z,62.25
2023-02-19T04:03:30.139Z,63.97
2023-02-19T04:30:26.334Z,67.63
2023-02-19T04:32:54.303Z,64.85
2023-02-19T04:35:47.646Z,71.40
2023-02-19T04:38:15.244Z,69.45
2023-02-19T04:44:18.334Z,69.93
2023-02-19T04:46:46.794Z,71.85
2023-02-19T04:49:17.553Z,71.85
2023-02-19T04:51:50.839Z,70.03
2023-02-19T04:54:21.689Z,71.80
2023-02-19T04:56:50.993Z,68.68
2023-02-19T04:59:21.861Z,69.18
2023-02-19T05:02:00.222Z,70.17
2023-02-19T05:04:27.946Z,69.82
2023-02-19T05:07:03.282Z,68.35
2023-02-19T05:09:31.085Z,66.10
2023-02-19T05:12:00.488Z,71.55
2023-02-19T05:14:35.899Z,66.32
2023-02-19T05:17:05.358Z,66.18
2023-02-19T05:19:34.126Z,68.95
2023-02-19T05:22:07.666Z,70.45
2023-02-19T05:27:34.971Z,70.00
2023-02-19T05:30:06.284Z,68.65
2023-02-19T05:32:37.289Z,69.32
2023-02-19T05:35:08.346Z,70.15
2023-02-19T05:38:51.009Z,68.68
2023-02-19T05:41:30.288Z,67.82
2023-02-19T05:44:14.846Z,68.15
2023-02-19T05:46:44.042Z,70.95
2023-02-19T05:49:12.338Z,70.95
2023-02-19T05:52:25.901Z,68.68
2023-02-19T05:54:55.233Z,69.43
2023-02-19T05:57:25.154Z,68.40
2023-02-19T06:00:00.117Z,67.70
2023-02-19T06:02:31.235Z,67.25
2023-02-19T06:05:05.678Z,66.22
2023-02-19T06:07:48.292Z,64.25
2023-02-19T06:10:32.629Z,72.50
2023-02-19T06:13:00.632Z,69.47
2023-02-19T06:15:29.811Z,74.43
2023-02-19T06:18:04.270Z,76.20
2023-02-19T06:20:36.256Z,76.35
2023-02-19T06:23:06.717Z,74.80
2023-02-19T06:25:39.188Z,77.50
2023-02-19T06:28:10.309Z,76.78
2023-02-19T06:31:19.808Z,76.85
2023-02-19T06:34:16.482Z,77.68
2023-02-19T06:36:48.902Z,76.13
2023-02-19T06:39:25.124Z,76.93
2023-02-19T06:41:59.002Z,82.88
2023-02-19T06:44:33.968Z,85.60
2023-02-19T06:47:03.237Z,82.72
2023-02-19T06:49:35.922Z,81.35
2023-02-19T06:52:11.609Z,78.10
2023-02-19T06:58:54.795Z,77.38
2023-02-19T07:05:31.774Z,75.82
2023-02-19T07:08:00.555Z,80.05
2023-02-19T07:10:28.985Z,74.68
2023-02-19T07:13:29.398Z,75.55
2023-02-19T07:18:50.517Z,74.82
2023-02-19T07:21:21.590Z,79.05
2023-02-19T07:24:34.619Z,76.85
2023-02-19T07:27:10.772Z,75.53
2023-02-19T07:29:41.488Z,76.32
2023-02-19T07:32:09.918Z,75.97
2023-02-19T07:34:37.722Z,77.85
2023-02-19T07:37:05.611Z,77.97
2023-02-19T07:39:38.489Z,77.05
2023-02-19T07:42:06.168Z,79.50
2023-02-19T07:44:34.356Z,75.82
2023-02-19T07:47:05.397Z,77.43
2023-02-19T07:49:39.856Z,77.97
2023-02-19T07:52:14.118Z,74.53
2023-02-19T07:57:10.446Z,72.85
2023-02-19T07:59:38.330Z,78.28
2023-02-19T08:06:03.551Z,69.60
2023-02-19T08:08:40.790Z,66.82
2023-02-19T08:14:13.330Z,70.80
2023-02-19T08:16:55.177Z,66.72
2023-02-19T08:19:28.496Z,65.30
2023-02-19T08:21:56.402Z,65.50
2023-02-19T08:24:37.998Z,63.17
2023-02-19T08:55:20.070Z,73.70
2023-02-19T08:57:50.314Z,78.13
2023-02-19T09:00:40.686Z,78.97
2023-02-19T09:03:12.225Z,76.32
2023-02-19T09:05:40.095Z,80.00
2023-02-19T09:08:10.862Z,79.18
2023-02-19T09:10:38.727Z,79.90
2023-02-19T09:13:06.360Z,79.43
2023-02-19T09:15:34.061Z,77.53
2023-02-19T09:18:19.410Z,79.30
2023-02-19T09:25:06.558Z,74.30
2023-02-19T09:27:41.582Z,76.93
2023-02-19T09:30:25.459Z,73.47
2023-02-19T09:36:07.901Z,71.40
2023-02-19T09:39:03.098Z,76.97
2023-02-19T09:41:54.706Z,73.03
2023-02-19T09:44:43.389Z,74.38
2023-02-19T09:47:35.848Z,73.05
2023-02-19T09:50:36.380Z,73.80
2023-02-19T09:57:35.063Z,69.63
2023-02-19T10:00:40.391Z,71.88
2023-02-19T10:07:42.275Z,69.10
2023-02-19T10:22:04.341Z,71.60
2023-02-19T10:24:42.960Z,70.60
2023-02-19T10:27:15.177Z,68.93
2023-02-19T10:29:47.994Z,71.53
2023-02-19T10:32:21.200Z,67.38
2023-02-19T10:35:13.781Z,71.05
2023-02-19T10:37:50.978Z,71.20
2023-02-19T10:40:21.602Z,69.85
2023-02-19T10:42:52.242Z,69.18
2023-02-19T10:45:53.174Z,68.43
2023-02-19T10:48:28.335Z,69.45
2023-02-19T10:50:58.330Z,69.55
2023-02-19T10:53:59.125Z,67.78
2023-02-19T10:56:30.028Z,67.88
2023-02-19T10:59:24.340Z,70.97
2023-02-19T11:01:56.058Z,69.60
2023-02-19T11:04:26.091Z,70.15
2023-02-19T11:06:53.982Z,66.20
2023-02-19T11:09:46.826Z,71.38
2023-02-19T11:12:23.100Z,71.95
2023-02-19T11:14:50.967Z,70.53
2023-02-19T11:17:34.023Z,68.53
2023-02-19T11:20:14.312Z,66.13
2023-02-19T11:22:46.998Z,67.03
2023-02-19T11:25:17.852Z,66.63
2023-02-19T11:28:07.617Z,65.78
2023-02-19T11:30:43.160Z,64.97
2023-02-19T11:33:16.757Z,66.80
2023-02-19T11:35:46.249Z,66.13
2023-02-19T11:38:16.518Z,66.13
2023-02-19T11:41:09.431Z,67.10
2023-02-19T11:43:47.371Z,68.63
2023-02-19T11:46:27.137Z,66.32
2023-02-19T11:49:13.352Z,66.38
2023-02-19T11:52:03.783Z,65.50
2023-02-19T11:54:55.202Z,65.68
2023-02-19T11:57:47.544Z,66.60
2023-02-19T12:00:28.269Z,68.40
2023-02-19T12:03:03.307Z,65.70
2023-02-19T12:05:49.344Z,64.93
2023-02-19T12:08:50.515Z,65.40
2023-02-19T12:11:27.483Z,67.38
2023-02-19T12:14:01.128Z,66.85
2023-02-19T12:16:52.731Z,69.03
2023-02-19T12:19:29.578Z,69.13
2023-02-19T12:22:33.383Z,66.97
2023-02-19T12:25:19.586Z,63.78
2023-02-19T12:28:03.729Z,65.13
2023-02-19T12:30:59.749Z,59.47
2023-02-19T12:33:49.147Z,64.13
2023-02-19T12:36:25.500Z,60.20
2023-02-19T12:39:22.980Z,61.03
2023-02-19T12:42:03.934Z,65.13
2023-02-19T12:44:53.239Z,64.10
2023-02-19T12:47:28.646Z,63.20
2023-02-19T12:50:19.756Z,59.50
2023-02-19T12:52:52.843Z,61.58
2023-02-19T12:55:40.029Z,61.45
2023-02-19T12:58:16.882Z,60.00
2023-02-19T13:00:53.628Z,59.08
2023-02-19T13:03:37.491Z,59.25
2023-02-19T13:06:33.588Z,60.28
2023-02-19T13:09:28.400Z,57.88
2023-02-19T13:12:11.800Z,58.10
2023-02-19T13:14:57.614Z,57.13
2023-02-19T13:17:45.080Z,57.15
2023-02-19T13:20:41.161Z,57.20
2023-02-19T13:23:40.467Z,52.42
2023-02-19T13:26:30.665Z,56.00
2023-02-19T13:29:16.471Z,54.03
2023-02-19T13:32:14.664Z,56.88
2023-02-19T13:35:23.805Z,52.03
2023-02-19T13:37:53.780Z,50.22
2023-02-19T13:40:39.529Z,53.60
2023-02-19T13:43:23.670Z,54.53
2023-02-19T13:46:00.736Z,55.38
2023-02-19T13:48:38.101Z,53.90
2023-02-19T13:51:23.728Z,48.63
2023-02-19T13:53:58.587Z,55.33
2023-02-19T13:56:34.982Z,53.92
2023-02-19T13:59:11.304Z,50.65
2023-02-19T14:01:51.862Z,54.00
2023-02-19T14:04:21.074Z,48.38
2023-02-19T14:07:03.910Z,54.35
2023-02-19T14:09:37.794Z,51.83
2023-02-19T14:12:37.622Z,54.63
2023-02-19T14:15:41.655Z,50.75
2023-02-19T14:18:41.465Z,50.60
2023-02-19T14:21:36.553Z,51.83
2023-02-19T14:24:14.728Z,52.60
2023-02-19T14:26:42.832Z,52.78
2023-02-19T14:29:15.129Z,51.25
2023-02-19T14:31:45.726Z,45.63
2023-02-19T14:34:22.961Z,50.38
2023-02-19T14:37:01.087Z,51.85
2023-02-19T14:39:35.198Z,51.42
2023-02-19T14:42:06.876Z,54.05
2023-02-19T14:44:48.877Z,52.92
2023-02-19T14:47:23.458Z,49.95
2023-02-19T14:52:29.148Z,48.93
2023-02-19T14:55:32.737Z,53.85
2023-02-19T14:58:05.023Z,51.75
2023-02-19T15:00:38.316Z,52.30
2023-02-19T15:03:06.948Z,54.88
2023-02-19T15:05:39.467Z,54.92
2023-02-19T15:08:18.690Z,53.42
2023-02-19T15:10:47.096Z,54.35
2023-02-19T15:13:23.560Z,56.15
2023-02-19T15:15:51.224Z,52.13
2023-02-19T15:18:22.565Z,54.55
2023-02-19T15:20:50.900Z,55.60
2023-02-19T15:23:24.119Z,56.03
2023-02-19T15:25:52.749Z,55.63
2023-02-19T15:28:26.298Z,58.58
2023-02-19T15:30:59.912Z,56.95
2023-02-19T15:33:30.006Z,59.30
2023-02-19T15:36:01.708Z,58.67
2023-02-19T15:38:29.992Z,58.97
2023-02-19T15:40:58.779Z,60.15
2023-02-19T15:43:40.656Z,60.03
2023-02-19T15:46:20.440Z,58.53
2023-02-19T15:48:50.841Z,59.67
2023-02-19T15:51:37.845Z,61.13
2023-02-19T15:54:27.083Z,59.85
2023-02-19T15:56:58.443Z,60.60
2023-02-19T15:59:40.340Z,61.53
2023-02-19T16:02:13.455Z,62.42
2023-02-19T16:04:43.956Z,61.22
2023-02-19T16:07:34.259Z,65.03
2023-02-19T16:10:30.935Z,67.80
2023-02-19T16:13:14.999Z,63.63
2023-02-19T16:21:45.012Z,61.60
2023-02-19T16:24:36.552Z,64.00
2023-02-19T16:27:05.292Z,62.53
2023-02-19T16:29:37.284Z,50.90
2023-02-19T16:32:15.853Z,59.42
2023-02-19T16:34:49.323Z,58.72
2023-02-19T16:37:36.203Z,60.15
2023-02-19T16:41:10.146Z,56.85
2023-02-19T16:43:52.750Z,55.85
2023-02-19T16:46:22.143Z,54.50
2023-02-19T16:48:50.870Z,55.30
2023-02-19T16:51:25.822Z,55.17
2023-02-19T16:53:58.898Z,52.25
2023-02-19T16:57:26.943Z,53.67
2023-02-19T17:00:56.662Z,55.33
2023-02-19T17:03:26.381Z,60.38
2023-02-19T17:13:23.790Z,64.03
2023-02-19T17:16:10.498Z,61.05
2023-02-19T17:48:17.079Z,64.97
2023-02-19T17:50:47.796Z,65.47
2023-02-19T17:53:18.829Z,65.03
2023-02-19T17:55:46.556Z,64.65
2023-02-19T17:58:20.516Z,65.50
2023-02-19T18:00:51.251Z,67.05
2023-02-19T18:03:19.280Z,66.13
2023-02-19T18:05:49.215Z,65.22
2023-02-19T18:08:29.751Z,63.30
2023-02-19T18:11:04.417Z,65.80
2023-02-19T18:13:35.454Z,64.82
2023-02-19T18:16:05.537Z,63.88
2023-02-19T18:18:37.153Z,60.40
2023-02-19T18:21:09.903Z,63.63
2023-02-19T18:23:43.381Z,59.95
2023-02-19T18:26:11.728Z,60.40
2023-02-19T18:28:39.821Z,59.75
2023-02-19T18:31:08.216Z,58.15
2023-02-19T18:33:35.810Z,60.28
2023-02-19T18:36:04.354Z,60.85
2023-02-19T18:38:34.518Z,61.10
2023-02-19T18:41:02.471Z,60.90
2023-02-19T18:43:30.106Z,60.13
2023-02-19T18:45:57.713Z,59.83
2023-02-19T18:48:25.214Z,62.53
2023-02-19T18:50:56.322Z,61.55
2023-02-19T18:53:24.493Z,60.88
2023-02-19T18:55:59.911Z,61.95
2023-02-19T18:58:32.417Z,60.40
2023-02-19T19:01:00.133Z,59.33
2023-02-19T19:03:30.738Z,63.00
2023-02-19T19:05:59.797Z,63.40
2023-02-19T19:08:39.485Z,65.57
2023-02-19T19:11:13.684Z,65.07
2023-02-19T19:13:44.396Z,63.92
2023-02-19T19:16:16.195Z,64.50
2023-02-19T19:19:46.140Z,68.28
2023-02-19T19:22:30.124Z,64.57
2023-02-19T19:24:58.594Z,64.10
2023-02-19T19:27:30.096Z,68.53
2023-02-19T19:29:58.212Z,67.75
2023-02-19T19:32:28.634Z,66.32
2023-02-19T19:34:58.107Z,62.50
2023-02-19T19:37:28.443Z,64.40
2023-02-19T19:39:56.829Z,66.93
2023-02-19T21:31:13.920Z,67.32
2023-02-19T21:33:59.642Z,66.38
2023-02-19T21:36:33.792Z,71.20
2023-02-19T22:23:34.308Z,68.22
2023-02-19T22:33:07.164Z,65.45
2023-02-19T22:37:12.147Z,68.18
2023-02-19T22:43:39.567Z,68.70
2023-02-19T22:54:30.315Z,63.97
2023-02-19T23:09:43.913Z,64.68
2023-02-19T23:19:19.840Z,64.45
2023-02-19T23:22:07.302Z,64.22
2023-02-19T23:29:02.781Z,67.35
2023-02-19T23:31:45.183Z,63.60
2023-02-19T23:34:21.589Z,63.42
2023-02-19T23:37:49.058Z,66.43
2023-02-19T23:40:30.334Z,64.18
2023-02-19T23:43:07.999Z,66.68
2023-02-19T23:46:56.673Z,66.88
2023-02-19T23:50:36.713Z,61.10
2023-02-19T23:53:33.176Z,64.00
2023-02-19T23:56:07.416Z,64.20
2023-02-19T23:58:56.697Z,64.40
